Winfield, Iowa
Current Conditions -  °F | °C
As of 7:55 AM on Friday 31 Oct 2014 (Local Time) from KMPZ Reporting Station
Clear Clear  
Wind Chill: 17°   Ceiling: Unl
Heat Index: 30°   Visibility: 10mi
Dew Point: 19°   Wind: 22mph
Humidity: 63%   Direction: 340°NNW
Pressure: 30.34"   Gusts: 29mph
Location:  41.12°N, 91.44°W
Report Text: KMPZ 311255Z AUTO 34019G25KT 10SM CLR M01/M07 A3034 RMK AO2 T10111073
Loading
Personal Weather Stations






























Interactive Weather Map
Tropical Storm Tracking
New forecast layout! Learn more

10-Day Weather Forecast

Advertisements
Track Severe Weather on mobile